Latest Weather Observations for Cape Leeuwin

IDW60801

Issued at 1:23 pm WST Friday 16 November 2018 (issued every 10 minutes, with the page automatically refreshed every 10 minutes)

About weather observations | Map of weather stations | Latest weather observations for WA | Other Formats
Station Details ID: 009518 Name: CAPE LEEUWIN Lat: -34.37 Lon: 115.14 Height: 13.0 m
Data from the previous 72 hours. | See also: Recent months at Cape Leeuwin
Date/Time
WST
Temp
°C
App
Temp
°C
Dew
Point
°C
Rel
Hum
%
Delta-T
°C
Wind Press
QNH
hPa
Press
MSL
hPa
Rain since
9am
mm
Dir  Spd
km/h
Gust
km/h
Spd
kts
Gust
kts
16/01:00pm 20.1 13.3 14.2 69 3.4 SE 43 56 23 30 1016.5 1016.5 0.0
16/12:30pm 20.2 13.4 14.3 69 3.4 SE 43 56 23 30 1016.8 1016.8 0.0
16/12:00pm 20.0 13.3 14.5 70 3.2 SE 43 52 23 28 1017.3 1017.3 0.0
16/11:30am 19.3 12.4 14.1 72 3.0 SE 43 52 23 28 1017.7 1017.7 0.0
16/11:00am 19.6 13.5 14.0 70 3.2 SE 39 50 21 27 1018.4 1018.4 0.0
16/10:30am 19.2 13.4 13.8 71 3.1 SE 37 46 20 25 1019.0 1019.0 0.0
16/10:00am 18.7 12.8 13.6 72 2.9 SE 37 44 20 24 1019.3 1019.3 0.0
16/09:30am 18.1 12.2 12.5 70 3.1 ESE 35 43 19 23 1019.5 1019.5 0.0
16/09:00am 17.8 11.9 12.4 70 3.0 ESE 35 43 19 23 1019.8 1019.8 0.0
16/08:30am 17.5 12.0 12.4 72 2.8 ESE 33 39 18 21 1020.2 1020.2 0.0
16/08:00am 17.3 11.8 12.6 74 2.6 ESE 33 41 18 22 1020.4 1020.4 0.0
16/07:30am 17.2 11.6 12.1 72 2.8 ESE 33 41 18 22 1020.4 1020.4 0.0
16/07:00am 17.0 11.7 12.5 75 2.5 ESE 32 37 17 20 1020.7 1020.7 0.0
16/06:30am 16.7 11.3 12.3 75 2.4 ESE 32 37 17 20 1020.8 1020.8 0.0
16/06:00am 16.2 10.7 12.0 76 2.3 ESE 32 37 17 20 1020.9 1020.9 0.0
16/05:30am 15.9 10.1 11.6 75 2.3 ESE 33 37 18 20 1020.8 1020.8 0.0
16/05:00am 15.8 10.6 11.5 75 2.3 ESE 30 37 16 20 1021.0 1021.0 0.0
16/04:30am 15.8 10.6 11.7 76 2.2 ESE 30 35 16 19 1020.8 1020.8 0.0
16/04:00am 15.8 10.7 11.9 77 2.1 ESE 30 35 16 19 1020.8 1020.8 0.0
16/03:30am 15.7 10.1 11.6 76 2.2 ESE 32 37 17 20 1020.8 1020.8 0.0
16/03:00am 15.6 8.8 11.9 78 2.0 E 39 46 21 25 1019.9 1019.9 0.0
16/02:30am 15.8 8.1 12.1 78 2.0 E 44 52 24 28 1019.8 1019.8 0.0
16/02:00am 16.0 8.0 12.3 79 2.0 E 46 56 25 30 1019.7 1019.7 0.0
16/01:30am 16.4 8.2 13.0 80 1.9 E 48 57 26 31 1019.9 1019.9 0.0
16/01:00am 16.4 8.4 13.4 82 1.7 E 48 57 26 31 1019.9 1019.9 0.0
16/12:30am 16.7 7.7 12.7 77 2.2 ESE 52 59 28 32 1020.2 1020.2 0.0
16/12:00am 16.9 9.3 13.5 80 1.9 ESE 46 54 25 29 1020.4 1020.4 0.0
 
Date/Time
WST
Temp
°C
App
Temp
°C
Dew
Point
°C
Rel
Hum
%
Delta-T
°C
Wind Press
QNH
hPa
Press
MSL
hPa
Rain since
9am
mm
Dir  Spd
km/h
Gust
km/h
Spd
kts
Gust
kts
15/11:30pm 17.2 9.6 13.7 80 2.0 ESE 46 59 25 32 1020.6 1020.6 0.0
15/11:00pm 17.1 9.3 13.0 77 2.3 ESE 46 56 25 30 1020.8 1020.8 0.0
15/10:30pm 17.0 9.6 13.1 78 2.2 ESE 44 57 24 31 1021.1 1021.1 0.0
15/10:00pm 16.8 9.5 12.8 77 2.2 SE 43 54 23 29 1021.5 1021.5 0.0
15/09:30pm 16.8 10.0 13.0 78 2.1 SE 41 52 22 28 1021.5 1021.5 0.0
15/09:00pm 16.7 9.4 12.7 77 2.2 SE 43 50 23 27 1021.7 1021.7 0.0
15/08:30pm 16.7 10.3 13.1 79 2.0 SE 39 52 21 28 1021.6 1021.6 0.0
15/08:00pm 16.7 10.1 12.7 77 2.2 SE 39 46 21 25 1021.6 1021.6 0.0
15/07:30pm 16.7 10.5 12.7 77 2.2 SE 37 48 20 26 1021.2 1021.2 0.0
15/07:00pm 16.9 10.5 12.0 73 2.7 SE 37 46 20 25 1021.1 1021.1 0.0
15/06:30pm 16.9 9.9 11.1 68 3.1 ESE 39 48 21 26 1020.7 1020.7 0.0
15/06:00pm 16.8 10.6 11.4 70 2.9 SE 35 44 19 24 1020.8 1020.8 0.0
15/05:30pm 17.2 11.4 11.5 69 3.1 SE 33 43 18 23 1020.5 1020.5 0.0
15/05:00pm 17.6 10.9 9.8 60 4.1 SE 35 43 19 23 1020.5 1020.5 0.0
15/04:30pm 17.8 11.8 10.7 63 3.8 SE 33 43 18 23 1020.5 1020.5 0.0
15/04:00pm 17.8 12.3 12.0 69 3.2 SE 32 39 17 21 1020.5 1020.5 0.0
15/03:30pm 19.0 13.7 12.5 66 3.6 SE 32 41 17 22 1020.6 1020.6 0.0
15/03:00pm 19.3 14.1 12.9 66 3.6 SE 32 39 17 21 1020.8 1020.8 0.0
15/02:30pm 18.7 13.8 12.4 67 3.5 SE 30 39 16 21 1021.0 1021.0 0.0
15/02:00pm 18.7 13.8 12.4 67 3.5 SSE 30 39 16 21 1021.1 1021.1 0.0
15/01:30pm 19.1 14.6 12.5 65 3.7 SSE 28 35 15 19 1021.2 1021.2 0.0
15/01:00pm 19.1 14.6 12.5 65 3.7 SSE 28 35 15 19 1021.0 1021.0 0.0
15/12:30pm 19.2 15.2 13.0 67 3.5 SSE 26 37 14 20 1021.1 1021.1 0.0
15/12:00pm 18.9 14.2 13.2 69 3.2 S 30 39 16 21 1021.4 1021.4 0.0
15/11:30am 19.9 17.0 14.0 69 3.4 SSE 22 28 12 15 1021.2 1021.2 0.0
15/11:00am 20.4 17.9 14.2 67 3.6 SSE 20 28 11 15 1021.1 1021.1 0.0
15/10:30am 20.1 17.6 14.2 69 3.4 SSE 20 28 11 15 1021.0 1021.0 0.0
15/10:00am 19.2 16.5 13.6 70 3.2 SSE 20 28 11 15 1021.1 1021.1 0.0
15/09:30am 19.5 16.8 13.5 68 3.4 SSE 20 26 11 14 1020.8 1020.8 0.0
15/09:00am 19.2 16.8 13.8 71 3.1 SSE 19 26 10 14 1020.6 1020.6 0.0
15/08:30am 18.7 15.9 13.2 70 3.1 SSE 20 24 11 13 1020.3 1020.3 0.0
15/08:00am 18.2 15.4 13.2 72 2.8 SE 20 24 11 13 1020.1 1020.1 0.0
15/07:30am 17.9 15.2 13.5 75 2.5 SSE 20 26 11 14 1019.7 1019.7 0.0
15/07:00am 17.4 14.6 13.1 76 2.4 SSE 20 24 11 13 1019.6 1019.6 0.0
15/06:30am 17.0 14.3 12.9 77 2.3 SSE 19 22 10 12 1019.4 1019.4 0.0
15/06:00am 16.2 13.8 12.6 79 2.0 SSE 17 20 9 11 1019.3 1019.3 0.0
15/05:30am 15.8 13.4 12.7 82 1.7 SSE 17 20 9 11 1019.1 1019.1 0.0
15/05:00am 15.7 13.2 12.4 81 1.8 SE 17 20 9 11 1018.6 1018.6 0.0
15/04:30am 15.8 12.9 12.9 83 1.6 SE 20 24 11 13 1017.9 1017.9 0.0
15/04:00am 15.9 13.0 12.8 82 1.7 SE 20 26 11 14 1017.7 1017.7 0.0
15/03:30am 15.9 12.9 12.6 81 1.8 SE 20 24 11 13 1017.9 1017.9 0.0
15/03:00am 15.9 13.1 12.6 81 1.8 SE 19 22 10 12 1017.9 1017.9 0.0
15/02:30am 16.1 13.2 12.8 81 1.8 SE 20 26 11 14 1017.9 1017.9 0.0
15/02:00am 16.2 12.6 13.0 81 1.8 SSE 24 26 13 14 1018.0 1018.0 0.0
15/01:30am 16.3 13.5 13.1 81 1.8 SE 20 26 11 14 1017.9 1017.9 0.0
15/01:00am 16.6 13.1 12.2 75 2.4 ESE 22 28 12 15 1017.9 1017.9 0.0
15/12:30am 16.8 13.1 12.6 76 2.3 ESE 24 30 13 16 1018.0 1018.0 0.0
15/12:00am 16.6 12.6 13.0 79 2.0 ESE 26 30 14 16 1018.1 1018.1 0.0
 
Date/Time
WST
Temp
°C
App
Temp
°C
Dew
Point
°C
Rel
Hum
%
Delta-T
°C
Wind Press
QNH
hPa
Press
MSL
hPa
Rain since
9am
mm
Dir  Spd
km/h
Gust
km/h
Spd
kts
Gust
kts
14/11:30pm 16.6 12.6 13.0 79 2.0 ESE 26 33 14 18 1018.3 1018.3 0.0
14/11:00pm 16.7 12.3 12.9 78 2.1 ESE 28 33 15 18 1018.7 1018.7 0.0
14/10:30pm 16.7 12.5 12.5 76 2.3 ESE 26 32 14 17 1018.9 1018.9 0.0
14/10:00pm 16.8 11.4 12.2 74 2.5 ESE 32 37 17 20 1019.1 1019.1 0.0
14/09:30pm 16.7 11.3 12.3 75 2.4 SE 32 39 17 21 1019.2 1019.2 0.0
14/09:00pm 16.8 11.4 12.8 77 2.2 SE 33 41 18 22 1019.2 1019.2 0.0
14/08:30pm 16.8 11.4 12.8 77 2.2 ESE 33 41 18 22 1019.1 1019.1 0.0
14/08:00pm 16.5 10.3 12.5 77 2.2 SE 37 43 20 23 1019.1 1019.1 0.0
14/07:30pm 16.4 10.1 12.4 77 2.2 SE 37 44 20 24 1019.1 1019.1 0.0
14/07:00pm 16.4 10.3 11.8 74 2.5 SE 35 43 19 23 1019.1 1019.1 0.0
14/06:30pm 16.6 10.8 11.4 71 2.8 SE 33 41 18 22 1019.2 1019.2 0.0
14/06:00pm 17.0 11.1 11.0 68 3.2 SE 33 41 18 22 1019.4 1019.4 0.0
14/05:30pm 17.4 11.7 11.3 67 3.3 SE 32 43 17 23 1019.3 1019.3 0.0
14/05:00pm 17.8 11.9 11.1 65 3.6 SE 33 43 18 23 1019.4 1019.4 0.0
14/04:30pm 18.4 12.5 11.2 63 3.9 SE 33 41 18 22 1019.6 1019.6 0.0
14/04:00pm 18.7 12.7 10.7 59 4.3 SE 33 41 18 22 1019.6 1019.6 0.0
14/03:30pm 18.8 12.7 10.4 58 4.5 SE 33 41 18 22 1019.9 1019.9 0.0
14/03:00pm 18.7 12.6 10.3 58 4.5 SE 33 41 18 22 1020.2 1020.2 0.0
14/02:30pm 19.3 13.8 10.4 56 4.8 SE 30 37 16 20 1020.2 1020.2 0.0
14/02:00pm 19.5 14.0 10.4 55 4.9 SE 30 39 16 21 1020.4 1020.4 0.0
14/01:30pm 19.0 14.3 10.6 58 4.5 SE 26 33 14 18 1020.5 1020.5 0.0
14/01:00pm 18.9 13.1 9.6 54 4.9 SE 30 37 16 20 1020.6 1020.6 0.0
14/12:30pm 19.5 13.8 9.7 53 5.2 SE 30 37 16 20 1021.1 1021.1 0.0
14/12:00pm 19.5 13.3 9.2 51 5.4 SE 32 37 17 20 1021.3 1021.3 0.0
14/11:30am 18.8 12.9 9.0 53 5.1 SE 30 37 16 20 1021.6 1021.6 0.0
14/11:00am 17.9 12.3 8.8 55 4.7 SE 28 35 15 19 1021.8 1021.8 0.0
14/10:30am 17.2 11.5 8.4 56 4.5 SE 28 35 15 19 1022.1 1022.1 0.0
14/10:00am 17.3 12.0 8.5 56 4.5 ESE 26 35 14 19 1022.3 1022.3 0.0
14/09:30am 16.9 10.7 8.0 55 4.5 ESE 30 35 16 19 1022.3 1022.3 0.0
14/09:00am 17.0 10.4 7.9 55 4.6 ESE 32 37 17 20 1022.1 1022.1 0.2
14/08:30am 16.8 10.2 7.6 54 4.6 ESE 32 39 17 21 1022.3 1022.3 0.2
14/08:00am 16.6 10.2 8.5 58 4.1 ESE 32 39 17 21 1022.3 1022.3 0.2
14/07:30am 16.0 9.6 8.5 61 3.8 E 32 37 17 20 1022.2 1022.2 0.2
14/07:00am 15.7 9.4 8.8 63 3.5 E 32 37 17 20 1021.9 1021.9 0.2
14/06:30am 15.5 9.2 9.0 65 3.3 E 32 37 17 20 1021.9 1021.9 0.2
14/06:00am 15.0 9.3 8.4 64 3.3 ESE 28 39 15 21 1021.6 1021.6 0.2
14/05:30am 15.1 9.6 9.2 68 3.0 ESE 28 37 15 20 1021.5 1021.5 0.2
14/05:00am 14.6 8.8 8.0 64 3.3 ESE 28 35 15 19 1021.2 1021.2 0.2
14/04:30am 14.5 8.3 7.8 64 3.3 ESE 30 37 16 20 1020.9 1020.9 0.2
14/04:00am 14.5 8.4 8.3 66 3.1 ESE 30 39 16 21 1020.8 1020.8 0.2
14/03:30am 14.6 8.9 8.2 65 3.2 SE 28 35 15 19 1020.9 1020.9 0.2
14/03:00am 14.7 9.0 8.3 65 3.2 SE 28 39 15 21 1021.1 1021.1 0.2
14/02:30am 14.7 8.9 8.1 64 3.3 SE 28 35 15 19 1021.0 1021.0 0.2
14/02:00am 14.4 8.1 7.5 63 3.4 SE 30 37 16 20 1021.1 1021.1 0.2
14/01:30am 14.4 8.3 8.2 66 3.1 SE 30 39 16 21 1021.0 1021.0 0.2
14/01:00am 14.4 8.5 7.7 64 3.3 SE 28 35 15 19 1021.0 1021.0 0.2
14/12:30am 14.4 8.2 7.7 64 3.3 SE 30 39 16 21 1021.3 1021.3 0.2
14/12:00am 14.6 9.6 8.2 65 3.2 SE 24 35 13 19 1021.3 1021.3 0.2
 
Date/Time
WST
Temp
°C
App
Temp
°C
Dew
Point
°C
Rel
Hum
%
Delta-T
°C
Wind Press
QNH
hPa
Press
MSL
hPa
Rain since
9am
mm
Dir  Spd
km/h
Gust
km/h
Spd
kts
Gust
kts
13/11:30pm 14.6 8.9 8.4 66 3.1 SE 28 35 15 19 1021.6 1021.6 0.2
13/11:00pm 14.6 8.4 7.7 63 3.4 SSE 30 39 16 21 1021.8 1021.8 0.2
13/10:30pm 15.0 10.2 8.9 67 3.1 SE 24 32 13 17 1021.9 1021.9 0.2
13/10:00pm 14.9 10.0 8.5 65 3.2 SSE 24 32 13 17 1022.1 1022.1 0.2
13/09:30pm 15.0 9.6 8.0 63 3.5 SSE 26 33 14 18 1022.1 1022.1 0.2
13/09:00pm 15.4 10.2 8.9 65 3.3 SE 26 39 14 21 1021.9 1021.9 0.2
13/08:30pm 14.8 8.9 7.7 62 3.5 SSE 28 39 15 21 1021.6 1021.6 0.2
13/08:00pm 14.7 9.5 7.4 61 3.6 SSE 24 30 13 16 1021.3 1021.3 0.2
13/07:30pm 15.0 9.9 7.7 61 3.6 SSE 24 32 13 17 1021.1 1021.1 0.2
13/07:00pm 15.6 11.1 8.5 62 3.6 SSE 22 32 12 17 1020.7 1020.7 0.2
13/06:30pm 15.8 10.9 8.5 62 3.7 SSE 24 32 13 17 1020.4 1020.4 0.2
13/06:00pm 15.9 12.0 8.6 62 3.7 SSE 19 26 10 14 1020.2 1020.2 0.2
13/05:30pm 16.8 12.7 8.6 58 4.2 SSE 20 30 11 16 1020.1 1020.1 0.2
13/05:00pm 16.9 13.1 9.2 60 4.0 S 19 24 10 13 1019.9 1019.9 0.2
13/04:30pm 17.9 14.3 8.3 53 4.9 S 17 22 9 12 1019.6 1019.6 0.2
13/04:00pm 17.1 13.7 9.0 59 4.2 SSE 17 24 9 13 1019.6 1019.6 0.2
13/03:30pm 18.1 14.9 9.8 58 4.4 S 17 20 9 11 1019.6 1019.6 0.2
13/03:00pm 18.1 15.2 9.8 58 4.4 S 15 22 8 12 1019.6 1019.6 0.2
13/02:30pm 19.0 15.6 10.4 57 4.6 S 19 24 10 13 1019.7 1019.7 0.2
13/02:00pm 18.8 15.2 10.6 59 4.4 S 20 28 11 15 1020.0 1020.0 0.2
13/01:30pm 19.6 16.4 10.1 54 5.1 S 17 20 9 11 1020.1 1020.1 0.2

Other Formats:

Comma delimited format used in spreadsheet applications
http://www.bom.gov.au/fwo/IDW60801/IDW60801.94601.axf

JavaScript Object Notation format (JSON) in row-major order
http://www.bom.gov.au/fwo/IDW60801/IDW60801.94601.json